createdAt,value
2023-02-02T00:02:00.668Z,52.50
2023-02-02T00:04:34.739Z,52.40
2023-02-02T00:07:07.890Z,52.20
2023-02-02T00:09:42.351Z,52.10
2023-02-02T00:12:15.441Z,52.20
2023-02-02T00:14:48.631Z,52.60
2023-02-02T00:17:21.738Z,52.80
2023-02-02T00:19:54.852Z,53.30
2023-02-02T00:22:28.194Z,53.60
2023-02-02T00:25:02.689Z,53.70
2023-02-02T00:27:35.802Z,53.80
2023-02-02T00:30:10.030Z,53.80
2023-02-02T00:32:43.653Z,53.70
2023-02-02T00:35:16.863Z,53.80
2023-02-02T00:37:49.980Z,53.80
2023-02-02T00:40:24.504Z,53.80
2023-02-02T00:42:57.663Z,53.70
2023-02-02T00:45:30.739Z,53.70
2023-02-02T00:48:03.829Z,53.80
2023-02-02T00:50:36.935Z,53.80
2023-02-02T00:53:10.028Z,53.70
2023-02-02T00:55:44.713Z,53.70
2023-02-02T00:58:17.853Z,53.80
2023-02-02T01:00:50.971Z,53.80
2023-02-02T01:03:24.135Z,53.80
2023-02-02T01:05:57.262Z,53.70
2023-02-02T01:08:31.747Z,53.70
2023-02-02T01:11:06.527Z,53.80
2023-02-02T01:13:39.676Z,53.70
2023-02-02T01:16:13.098Z,53.70
2023-02-02T01:18:46.203Z,53.70
2023-02-02T01:21:19.344Z,53.70
2023-02-02T01:23:52.503Z,53.70
2023-02-02T01:26:27.137Z,53.70
2023-02-02T01:29:00.373Z,53.70
2023-02-02T01:31:33.614Z,53.70
2023-02-02T01:34:07.686Z,53.60
2023-02-02T01:36:40.781Z,53.60
2023-02-02T01:39:13.859Z,53.60
2023-02-02T01:41:48.336Z,53.50
2023-02-02T01:44:40.141Z,53.50
2023-02-02T01:47:13.727Z,53.40
2023-02-02T01:49:46.910Z,53.50
2023-02-02T01:52:20.909Z,53.40
2023-02-02T01:54:57.555Z,53.50
2023-02-02T01:57:34.609Z,53.50
2023-02-02T02:00:09.200Z,53.60
2023-02-02T02:02:51.152Z,53.50
2023-02-02T02:05:28.740Z,53.50
2023-02-02T02:08:04.954Z,53.50
2023-02-02T02:10:39.033Z,53.50
2023-02-02T02:13:14.040Z,53.40
2023-02-02T02:16:07.396Z,53.50
2023-02-02T02:18:45.547Z,53.50
2023-02-02T02:21:54.385Z,53.30
2023-02-02T02:25:05.576Z,53.30
2023-02-02T02:27:56.507Z,53.30
2023-02-02T02:30:38.687Z,53.30
2023-02-02T02:33:16.412Z,53.30
2023-02-02T02:35:55.407Z,53.30
2023-02-02T02:38:33.773Z,53.30
2023-02-02T02:41:09.923Z,53.20
2023-02-02T02:43:45.141Z,53.30
2023-02-02T02:46:18.794Z,53.30
2023-02-02T02:48:53.445Z,53.40
2023-02-02T02:51:41.063Z,53.40
2023-02-02T02:54:17.415Z,53.40
2023-02-02T02:57:07.623Z,53.40
2023-02-02T02:59:47.661Z,53.40
2023-02-02T03:02:35.282Z,53.30
2023-02-02T03:05:21.858Z,53.40
2023-02-02T03:08:02.512Z,53.30
2023-02-02T03:10:36.214Z,53.40
2023-02-02T03:13:10.467Z,53.30
2023-02-02T03:15:44.191Z,53.40
2023-02-02T03:18:19.026Z,53.30
2023-02-02T03:20:53.630Z,53.30
2023-02-02T03:23:26.878Z,53.40
2023-02-02T03:26:00.104Z,53.30
2023-02-02T03:28:33.546Z,53.30
2023-02-02T03:31:06.843Z,53.30
2023-02-02T03:33:40.163Z,53.40
2023-02-02T03:36:14.625Z,53.40
2023-02-02T03:38:47.692Z,53.40
2023-02-02T03:41:20.786Z,53.40
2023-02-02T03:43:53.879Z,53.50
2023-02-02T03:46:27.009Z,53.50
2023-02-02T03:49:00.211Z,53.40
2023-02-02T03:51:34.863Z,53.50
2023-02-02T03:54:07.928Z,53.40
2023-02-02T03:56:40.982Z,53.50
2023-02-02T03:59:14.042Z,53.50
2023-02-02T04:01:47.166Z,53.50
2023-02-02T04:04:20.249Z,53.40
2023-02-02T04:06:54.750Z,53.50
2023-02-02T04:09:27.797Z,53.50
2023-02-02T04:12:00.895Z,53.50
2023-02-02T04:14:34.055Z,53.50
2023-02-02T04:17:07.275Z,53.60
2023-02-02T04:19:40.356Z,53.60
2023-02-02T04:22:14.794Z,53.60
2023-02-02T04:24:47.873Z,53.50
2023-02-02T04:27:21.079Z,53.50
2023-02-02T04:29:54.213Z,53.60
2023-02-02T04:32:27.252Z,53.60
2023-02-02T04:35:00.341Z,53.60
2023-02-02T04:37:34.884Z,53.60
2023-02-02T04:40:08.671Z,53.60
2023-02-02T04:42:41.772Z,53.60
2023-02-02T04:45:14.930Z,53.60
2023-02-02T04:47:48.010Z,53.60
2023-02-02T04:50:21.084Z,53.60
2023-02-02T04:52:55.533Z,53.60
2023-02-02T04:55:28.606Z,53.60
2023-02-02T04:58:01.924Z,53.60
2023-02-02T05:00:35.075Z,53.60
2023-02-02T05:03:08.143Z,53.70
2023-02-02T05:05:41.226Z,53.90
2023-02-02T05:08:15.669Z,54.20
2023-02-02T05:10:50.230Z,54.20
2023-02-02T05:13:23.332Z,54.20
2023-02-02T05:15:56.449Z,54.20
2023-02-02T05:18:31.573Z,54.30
2023-02-02T05:21:04.917Z,54.30
2023-02-02T05:23:39.323Z,54.20
2023-02-02T05:26:13.226Z,54.20
2023-02-02T05:28:46.424Z,54.00
2023-02-02T05:31:19.880Z,53.80
2023-02-02T05:33:53.030Z,53.70
2023-02-02T05:36:26.103Z,53.80
2023-02-02T05:39:00.633Z,53.80
2023-02-02T05:41:33.767Z,53.60
2023-02-02T05:44:06.937Z,53.50
2023-02-02T05:46:40.194Z,53.50
2023-02-02T05:49:14.322Z,53.40
2023-02-02T05:51:49.383Z,53.30
2023-02-02T05:54:23.888Z,53.30
2023-02-02T05:56:57.139Z,53.20
2023-02-02T05:59:30.354Z,53.70
2023-02-02T06:02:03.428Z,53.20
2023-02-02T06:04:36.573Z,53.10
2023-02-02T06:07:09.626Z,53.00
2023-02-02T06:09:44.086Z,52.90
2023-02-02T06:12:18.801Z,52.80
2023-02-02T06:14:51.919Z,52.60
2023-02-02T06:17:25.056Z,52.60
2023-02-02T06:19:58.143Z,52.30
2023-02-02T06:22:32.346Z,52.40
2023-02-02T06:25:07.952Z,52.50
2023-02-02T06:27:41.076Z,52.50
2023-02-02T06:30:14.744Z,52.50
2023-02-02T06:32:47.857Z,52.60
2023-02-02T06:35:21.345Z,52.60
2023-02-02T06:37:54.763Z,52.60
2023-02-02T06:40:29.705Z,52.60
2023-02-02T06:43:03.386Z,52.70
2023-02-02T06:45:40.189Z,52.60
2023-02-02T06:48:14.123Z,52.70
2023-02-02T06:50:47.233Z,52.60
2023-02-02T06:53:23.125Z,52.40
2023-02-02T06:55:58.093Z,44.80
2023-02-02T06:58:31.938Z,38.20
2023-02-02T07:01:05.955Z,37.60
2023-02-02T07:03:39.460Z,35.40
2023-02-02T07:06:13.493Z,35.80
2023-02-02T07:08:48.941Z,38.20
2023-02-02T07:11:38.165Z,39.70
2023-02-02T07:14:16.426Z,40.30
2023-02-02T07:16:49.687Z,41.10
2023-02-02T07:19:22.787Z,41.10
2023-02-02T07:21:55.911Z,41.70
2023-02-02T07:24:29.043Z,41.60
2023-02-02T07:27:03.461Z,42.00
2023-02-02T07:29:36.582Z,41.30
2023-02-02T07:32:09.676Z,42.30
2023-02-02T07:34:44.207Z,42.60
2023-02-02T07:37:17.312Z,42.80
2023-02-02T07:39:50.492Z,42.90
2023-02-02T07:42:24.973Z,43.10
2023-02-02T07:44:58.548Z,43.10
2023-02-02T07:47:31.745Z,43.10
2023-02-02T07:50:05.021Z,42.90
2023-02-02T07:52:38.141Z,43.40
2023-02-02T07:55:14.826Z,43.50
2023-02-02T07:57:49.545Z,43.80
2023-02-02T08:00:23.255Z,43.80
2023-02-02T08:02:56.481Z,43.80
2023-02-02T08:05:29.593Z,43.60
2023-02-02T08:08:02.669Z,44.10
2023-02-02T08:10:35.773Z,44.10
2023-02-02T08:13:10.228Z,44.10
2023-02-02T08:15:43.343Z,44.10
2023-02-02T08:18:17.035Z,44.00
2023-02-02T08:20:52.271Z,43.70
2023-02-02T08:23:25.365Z,44.00
2023-02-02T08:26:06.594Z,43.90
2023-02-02T08:28:41.818Z,43.60
2023-02-02T08:31:16.024Z,43.80
2023-02-02T08:33:49.423Z,43.20
2023-02-02T08:36:23.285Z,43.40
2023-02-02T08:38:56.659Z,43.50
2023-02-02T08:41:29.776Z,43.30
2023-02-02T08:44:05.790Z,43.50
2023-02-02T08:46:38.953Z,43.60
2023-02-02T08:49:12.434Z,43.90
2023-02-02T08:51:45.505Z,44.40
2023-02-02T08:54:19.268Z,43.90
2023-02-02T08:56:52.379Z,43.00
2023-02-02T08:59:27.036Z,43.70
2023-02-02T09:02:00.160Z,43.10
2023-02-02T09:04:33.231Z,43.20
2023-02-02T09:07:06.523Z,43.30
2023-02-02T09:09:39.622Z,43.30
2023-02-02T09:12:12.735Z,43.50
2023-02-02T09:14:47.254Z,43.30
2023-02-02T09:17:20.403Z,43.50
2023-02-02T09:19:53.498Z,43.70
2023-02-02T09:22:28.766Z,43.80
2023-02-02T09:25:02.084Z,43.40
2023-02-02T09:27:38.132Z,43.50
2023-02-02T09:30:13.496Z,43.90
2023-02-02T09:32:49.417Z,43.90
2023-02-02T09:35:23.022Z,43.90
2023-02-02T09:37:56.414Z,43.90
2023-02-02T09:40:31.689Z,43.90
2023-02-02T09:43:09.049Z,43.90
2023-02-02T09:45:46.613Z,43.90
2023-02-02T09:48:26.599Z,43.90
2023-02-02T09:51:00.878Z,43.60
2023-02-02T09:53:52.979Z,43.50
2023-02-02T09:56:32.639Z,43.30
2023-02-02T09:59:19.064Z,43.40
2023-02-02T10:01:56.650Z,43.60
2023-02-02T10:04:34.462Z,43.30
2023-02-02T10:07:09.818Z,43.20
2023-02-02T10:09:47.428Z,43.30
2023-02-02T10:12:26.139Z,43.20
2023-02-02T10:15:01.144Z,43.10
2023-02-02T10:17:41.690Z,43.50
2023-02-02T10:20:31.459Z,43.50
2023-02-02T10:23:10.608Z,43.50
2023-02-02T10:25:50.217Z,43.50
2023-02-02T10:28:28.469Z,43.60
2023-02-02T10:31:02.466Z,43.60
2023-02-02T10:33:39.067Z,43.70
2023-02-02T10:36:16.296Z,43.60
2023-02-02T10:38:53.305Z,43.80
2023-02-02T10:41:28.572Z,44.10
2023-02-02T10:44:07.305Z,44.10
2023-02-02T10:46:41.932Z,44.40
2023-02-02T10:49:23.833Z,44.40
2023-02-02T10:51:59.216Z,44.40
2023-02-02T10:54:55.354Z,44.30
2023-02-02T10:57:45.261Z,44.20
2023-02-02T11:00:23.091Z,44.20
2023-02-02T11:02:56.519Z,44.10
2023-02-02T11:06:00.309Z,44.00
2023-02-02T11:08:34.789Z,44.00
2023-02-02T11:11:12.200Z,43.90
2023-02-02T11:13:49.042Z,44.00
2023-02-02T11:16:25.706Z,43.90
2023-02-02T11:19:00.409Z,44.00
2023-02-02T11:21:37.419Z,43.80
2023-02-02T11:24:24.861Z,43.80
2023-02-02T11:27:00.929Z,44.20
2023-02-02T11:29:37.293Z,44.10
2023-02-02T11:32:27.446Z,44.10
2023-02-02T11:35:17.776Z,43.70
2023-02-02T11:38:01.141Z,44.20
2023-02-02T11:40:36.494Z,44.10
2023-02-02T11:43:17.397Z,44.20
2023-02-02T11:45:55.136Z,44.20
2023-02-02T11:48:30.586Z,44.10
2023-02-02T11:51:04.260Z,44.20
2023-02-02T11:53:42.147Z,44.20
2023-02-02T11:56:19.843Z,44.70
2023-02-02T11:58:55.430Z,45.70
2023-02-02T12:01:29.446Z,46.30
2023-02-02T12:04:03.283Z,46.90
2023-02-02T12:06:37.301Z,47.20
2023-02-02T12:09:13.657Z,47.60
2023-02-02T12:11:53.809Z,47.80
2023-02-02T12:14:32.951Z,48.00
2023-02-02T12:17:14.598Z,48.00
2023-02-02T12:20:02.497Z,47.70
2023-02-02T12:22:45.685Z,47.40
2023-02-02T12:25:37.084Z,47.20
2023-02-02T12:28:16.645Z,47.00
2023-02-02T12:30:56.087Z,46.80
2023-02-02T12:33:34.408Z,46.70
2023-02-02T12:36:22.532Z,46.50
2023-02-02T12:39:09.832Z,46.40
2023-02-02T12:41:50.601Z,46.30
2023-02-02T12:44:25.825Z,46.20
2023-02-02T12:47:04.299Z,46.10
2023-02-02T12:49:45.778Z,46.10
2023-02-02T12:52:24.609Z,45.90
2023-02-02T12:55:03.399Z,45.90
2023-02-02T12:57:45.423Z,45.70
2023-02-02T13:00:27.333Z,45.60
2023-02-02T13:03:06.252Z,45.50
2023-02-02T13:05:53.383Z,45.30
2023-02-02T13:08:27.614Z,45.30
2023-02-02T13:11:03.265Z,45.20
2023-02-02T13:13:39.037Z,45.20
2023-02-02T13:16:14.293Z,45.20
2023-02-02T13:18:49.502Z,45.10
2023-02-02T13:21:23.077Z,45.10
2023-02-02T13:23:59.287Z,45.00
2023-02-02T13:26:35.528Z,44.90
2023-02-02T13:29:19.644Z,44.80
2023-02-02T13:31:55.160Z,44.80
2023-02-02T13:34:37.035Z,44.80
2023-02-02T13:37:17.063Z,44.60
2023-02-02T13:39:55.238Z,44.60
2023-02-02T13:42:37.994Z,44.50
2023-02-02T13:45:25.030Z,44.30
2023-02-02T13:48:00.275Z,44.40
2023-02-02T13:50:38.863Z,44.40
2023-02-02T13:53:20.438Z,44.50
2023-02-02T13:56:10.472Z,44.50
2023-02-02T13:58:49.477Z,44.70
2023-02-02T14:01:24.943Z,44.70
2023-02-02T14:03:58.690Z,44.80
2023-02-02T14:06:51.372Z,45.10
2023-02-02T14:09:26.636Z,45.20
2023-02-02T14:12:02.595Z,45.50
2023-02-02T14:14:36.925Z,45.70
2023-02-02T14:17:33.693Z,45.80
2023-02-02T14:20:09.121Z,46.00
2023-02-02T14:22:43.405Z,46.00
2023-02-02T14:25:43.582Z,46.10
2023-02-02T14:28:31.556Z,46.10
2023-02-02T14:31:20.094Z,46.20
2023-02-02T14:34:14.578Z,46.30
2023-02-02T14:36:54.087Z,46.30
2023-02-02T14:39:30.220Z,46.40
2023-02-02T14:42:28.765Z,46.40
2023-02-02T14:45:23.049Z,46.30
2023-02-02T14:47:59.555Z,46.30
2023-02-02T14:50:42.677Z,46.20
2023-02-02T14:53:22.233Z,46.40
2023-02-02T14:55:57.444Z,46.30
2023-02-02T14:58:34.211Z,46.40
2023-02-02T15:01:09.983Z,46.40
2023-02-02T15:03:50.815Z,46.40
2023-02-02T15:06:33.108Z,46.30
2023-02-02T15:09:26.601Z,46.30
2023-02-02T15:12:19.011Z,46.40
2023-02-02T15:14:56.454Z,46.20
2023-02-02T15:17:34.522Z,46.40
2023-02-02T15:20:11.832Z,46.30
2023-02-02T15:22:49.772Z,46.20
2023-02-02T15:25:25.294Z,46.20
2023-02-02T15:28:00.239Z,46.10
2023-02-02T15:30:37.960Z,46.00
2023-02-02T15:33:16.488Z,46.10
2023-02-02T15:35:50.165Z,41.10
2023-02-02T15:38:26.118Z,38.60
2023-02-02T15:40:59.360Z,39.10
2023-02-02T15:43:32.476Z,39.40
2023-02-02T15:46:07.173Z,39.00
2023-02-02T15:48:40.717Z,39.10
2023-02-02T15:51:17.109Z,39.40
2023-02-02T15:53:52.844Z,39.40
2023-02-02T15:56:30.427Z,40.50
2023-02-02T15:59:04.565Z,41.00
2023-02-02T16:01:46.173Z,41.10
2023-02-02T16:04:21.019Z,41.30
2023-02-02T16:06:54.890Z,41.40
2023-02-02T16:09:32.232Z,41.60
2023-02-02T16:12:06.189Z,41.60
2023-02-02T16:14:40.738Z,42.00
2023-02-02T16:17:14.655Z,42.10
2023-02-02T16:19:48.530Z,42.30
2023-02-02T16:22:23.895Z,42.30
2023-02-02T16:25:00.395Z,42.40
2023-02-02T16:27:33.579Z,42.90
2023-02-02T16:30:08.101Z,42.90
2023-02-02T16:32:41.963Z,43.30
2023-02-02T16:35:30.899Z,43.60
2023-02-02T16:38:13.780Z,43.70
2023-02-02T16:40:48.271Z,44.10
2023-02-02T16:43:28.295Z,44.70
2023-02-02T16:46:04.561Z,45.10
2023-02-02T16:48:38.132Z,45.70
2023-02-02T16:51:22.853Z,46.00
2023-02-02T16:53:59.089Z,46.10
2023-02-02T16:56:34.621Z,46.30
2023-02-02T16:59:15.006Z,46.80
2023-02-02T17:01:50.082Z,46.70
2023-02-02T17:04:24.837Z,46.80
2023-02-02T17:06:58.919Z,47.10
2023-02-02T17:09:35.649Z,47.20
2023-02-02T17:12:33.693Z,47.30
2023-02-02T17:15:22.482Z,47.20
2023-02-02T17:17:56.054Z,47.50
2023-02-02T17:20:29.194Z,47.60
2023-02-02T17:23:03.505Z,47.70
2023-02-02T17:25:37.595Z,47.50
2023-02-02T17:28:13.767Z,47.40
2023-02-02T17:30:47.688Z,47.70
2023-02-02T17:33:20.862Z,47.80
2023-02-02T17:35:56.226Z,47.80
2023-02-02T17:38:29.987Z,48.00
2023-02-02T17:41:04.513Z,48.00
2023-02-02T17:43:38.984Z,48.60
2023-02-02T17:46:13.136Z,48.70
2023-02-02T17:48:46.305Z,49.00
2023-02-02T17:51:19.441Z,49.10
2023-02-02T17:53:55.426Z,49.30
2023-02-02T17:56:28.807Z,49.60
2023-02-02T17:59:03.288Z,49.70
2023-02-02T18:01:39.334Z,49.90
2023-02-02T18:04:13.838Z,50.00
2023-02-02T18:06:47.049Z,49.90
2023-02-02T18:09:20.207Z,49.80
2023-02-02T18:11:53.333Z,49.60
2023-02-02T18:14:27.888Z,49.60
2023-02-02T18:17:00.986Z,49.80
2023-02-02T18:19:34.120Z,50.00
2023-02-02T18:22:07.545Z,50.10
2023-02-02T18:24:40.867Z,50.50
2023-02-02T18:27:14.301Z,50.50
2023-02-02T18:29:49.035Z,50.80
2023-02-02T18:32:22.165Z,50.80
2023-02-02T18:34:56.079Z,50.90
2023-02-02T18:37:29.218Z,50.90
2023-02-02T18:40:02.615Z,50.70
2023-02-02T18:42:36.727Z,51.00
2023-02-02T18:45:11.926Z,51.20
2023-02-02T18:47:45.069Z,51.40
2023-02-02T18:50:18.401Z,51.60
2023-02-02T18:52:51.612Z,51.60
2023-02-02T18:55:25.242Z,51.60
2023-02-02T18:57:58.594Z,51.60
2023-02-02T19:00:33.304Z,51.90
2023-02-02T19:03:06.424Z,51.90
2023-02-02T19:05:56.976Z,52.00
2023-02-02T19:08:31.472Z,51.90
2023-02-02T19:11:12.671Z,51.90
2023-02-02T19:13:45.814Z,52.00
2023-02-02T19:16:23.094Z,52.00
2023-02-02T19:18:57.020Z,51.90
2023-02-02T19:21:30.762Z,51.70
2023-02-02T19:24:03.937Z,51.70
2023-02-02T19:26:38.925Z,51.50
2023-02-02T19:29:16.461Z,51.20
2023-02-02T19:31:54.440Z,51.10
2023-02-02T19:34:27.708Z,51.00
2023-02-02T19:37:02.411Z,51.10
2023-02-02T19:39:35.525Z,51.20
2023-02-02T19:42:10.818Z,51.40
2023-02-02T19:44:43.992Z,51.50
2023-02-02T19:47:22.728Z,51.50
2023-02-02T19:49:55.883Z,51.50
2023-02-02T19:52:37.594Z,51.60
2023-02-02T19:55:18.836Z,51.60
2023-02-02T19:57:54.362Z,51.50
2023-02-02T20:00:29.370Z,51.10
2023-02-02T20:03:07.427Z,50.70
2023-02-02T20:05:44.737Z,50.70
2023-02-02T20:08:22.052Z,50.90
2023-02-02T20:10:55.614Z,50.70
2023-02-02T20:13:35.223Z,50.70
2023-02-02T20:16:12.829Z,50.60
2023-02-02T20:18:50.804Z,50.50
2023-02-02T20:21:26.382Z,50.70
2023-02-02T20:23:59.482Z,50.70
2023-02-02T20:26:35.723Z,50.70
2023-02-02T20:29:17.359Z,50.80
2023-02-02T20:31:51.333Z,50.80
2023-02-02T20:34:27.210Z,50.80
2023-02-02T20:37:02.055Z,50.90
2023-02-02T20:39:36.655Z,50.90
2023-02-02T20:42:09.808Z,50.90
2023-02-02T20:44:43.262Z,50.90
2023-02-02T20:47:16.477Z,50.90
2023-02-02T20:49:51.012Z,50.90
2023-02-02T20:52:24.294Z,50.80
2023-02-02T20:54:58.150Z,50.80
2023-02-02T20:57:32.735Z,50.80
2023-02-02T21:00:06.358Z,50.80
2023-02-02T21:02:39.494Z,50.70
2023-02-02T21:05:14.100Z,50.70
2023-02-02T21:07:47.217Z,50.70
2023-02-02T21:10:20.345Z,50.80
2023-02-02T21:12:53.485Z,50.70
2023-02-02T21:15:26.863Z,51.70
2023-02-02T21:17:59.956Z,51.70
2023-02-02T21:20:34.723Z,51.70
2023-02-02T21:23:09.845Z,51.50
2023-02-02T21:25:42.884Z,51.70
2023-02-02T21:28:15.930Z,51.80
2023-02-02T21:30:49.141Z,51.80
2023-02-02T21:33:22.395Z,52.00
2023-02-02T21:35:58.845Z,52.40
2023-02-02T21:38:32.024Z,52.70
2023-02-02T21:41:10.295Z,52.80
2023-02-02T21:43:44.147Z,52.80
2023-02-02T21:46:19.347Z,52.80
2023-02-02T21:48:52.542Z,52.80
2023-02-02T21:51:30.071Z,52.70
2023-02-02T21:54:14.272Z,52.50
2023-02-02T21:56:47.475Z,52.20
2023-02-02T21:59:22.115Z,52.00
2023-02-02T22:01:56.700Z,51.90
2023-02-02T22:04:30.289Z,51.80
2023-02-02T22:07:12.891Z,51.70
2023-02-02T22:09:48.532Z,51.50
2023-02-02T22:12:23.132Z,51.30
2023-02-02T22:14:58.584Z,51.20
2023-02-02T22:17:39.560Z,51.00
2023-02-02T22:20:30.001Z,50.90
2023-02-02T22:23:04.526Z,50.80
2023-02-02T22:25:38.182Z,50.60
2023-02-02T22:28:15.367Z,50.50
2023-02-02T22:30:48.659Z,50.40
2023-02-02T22:33:22.346Z,50.30
2023-02-02T22:35:55.493Z,50.20
2023-02-02T22:38:29.991Z,50.20
2023-02-02T22:41:03.142Z,50.10
2023-02-02T22:43:36.446Z,50.10
2023-02-02T22:46:09.603Z,50.00
2023-02-02T22:48:42.777Z,50.00
2023-02-02T22:51:15.897Z,50.00
2023-02-02T22:53:50.401Z,49.90
2023-02-02T22:56:23.486Z,49.80
2023-02-02T22:58:56.593Z,49.70
2023-02-02T23:01:29.680Z,49.60
2023-02-02T23:04:02.880Z,49.50
2023-02-02T23:06:36.063Z,49.60
2023-02-02T23:09:10.517Z,49.60
2023-02-02T23:11:43.695Z,49.50
2023-02-02T23:14:16.879Z,49.80
2023-02-02T23:16:50.009Z,50.60
2023-02-02T23:19:23.080Z,51.30
2023-02-02T23:21:56.368Z,51.50
2023-02-02T23:24:30.963Z,51.70
2023-02-02T23:27:04.093Z,51.80
2023-02-02T23:29:37.207Z,51.60
2023-02-02T23:32:10.317Z,51.50
2023-02-02T23:34:43.537Z,51.40
2023-02-02T23:37:16.631Z,51.40
2023-02-02T23:39:51.106Z,51.60
2023-02-02T23:42:24.189Z,51.60
2023-02-02T23:44:57.287Z,51.70
2023-02-02T23:47:30.370Z,51.90
2023-02-02T23:50:05.372Z,51.90
2023-02-02T23:52:38.886Z,51.90
2023-02-02T23:55:13.371Z,51.90
2023-02-02T23:57:46.476Z,51.90
